Time;durP1;ratioP1;P1;durP2;ratioP2;P2;SDS_P1;SDS_P2;PMS_P1;PMS_P2;Temp;Humidity;BMP_temperature;BMP_pressure;BME280_temperature;BME280_humidity;BME280_pressure;Samples;Min_cycle;Max_cycle;Signal;HPM_P1;HPM_P2
2023/10/19 00:01:28;;;;;;;;;;;;;;;-144.99;90.75;52444.03;5091858;28;19950;-70
2023/10/19 00:03:55;;;;;;;;;;;;;;;-144.99;90.75;52423.63;5091405;28;19935;-70
2023/10/19 00:06:23;;;;;;;;;;;;;;;-144.99;90.91;52456.25;5092389;28;19931;-69
2023/10/19 00:08:50;;;;;;;;;;;;;;;-144.99;91.25;52456.25;5092842;28;19986;-72
2023/10/19 00:11:21;;;;;;;;;;;;;;;-144.99;91.07;52407.31;5090331;28;19935;-72
2023/10/19 00:13:49;;;;;;;;;;;;;;;-144.99;91.26;52464.41;5092449;28;20387;-73
2023/10/19 00:16:16;;;;;;;;;;;;;;;-144.99;91.07;52423.63;5093732;28;19924;-71
2023/10/19 00:18:44;;;;;;;;;;;;;;;-144.99;91.33;52444.03;5084031;28;19928;-71
2023/10/19 00:21:19;;;;;;;;;;;;;;;-144.99;91.39;52456.25;5085884;28;20293;-71
2023/10/19 00:23:47;;;;;;;;;;;;;;;-144.99;91.69;52488.84;5091212;28;19967;-69
2023/10/19 00:26:17;;;;;;;;;;;;;;;-144.99;91.60;52427.72;5084279;28;20007;-72
2023/10/19 00:28:45;;;;;;;;;;;;;;;-144.99;91.48;52435.88;5095644;28;19946;-71
2023/10/19 00:31:12;;;;;;;;;;;;;;;-144.99;91.70;52399.19;5089143;28;19927;-71
2023/10/19 00:33:39;;;;;;;;;;;;;;;-144.99;91.71;52476.63;5089768;28;19928;-69
2023/10/19 00:36:07;;;;;;;;;;;;;;;-144.99;91.86;52444.03;5083372;28;19935;-68
2023/10/19 00:38:41;;;;;;;;;;;;;;;-144.99;91.79;52439.94;5091146;28;19947;-71
2023/10/19 00:41:11;;;;;;;;;;;;;;;-144.99;91.72;52448.09;5089618;28;19931;-70
2023/10/19 00:43:42;;;;;;;;;;;;;;;-144.99;92.15;52439.94;5088670;28;19931;-69
2023/10/19 00:46:14;;;;;;;;;;;;;;;-144.99;91.88;52419.56;5090560;28;19939;-71
2023/10/19 00:48:45;;;;;;;;;;;;;;;-144.99;92.14;52444.03;5090361;28;19924;-71
2023/10/19 00:51:26;;;;;;;;;;;;;;;-144.99;91.89;52448.09;5087121;28;20023;-71
2023/10/19 00:53:54;;;;;;;;;;;;;;;-144.99;92.32;52435.88;5087059;28;19970;-69
2023/10/19 00:56:23;;;;;;;;;;;;;;;-144.99;92.16;52439.94;5101352;28;19924;-69
2023/10/19 00:58:53;;;;;;;;;;;;;;;-144.99;91.82;52444.03;5086803;28;19935;-71
2023/10/19 01:01:21;;;;;;;;;;;;;;;-144.99;92.10;52439.94;5090533;28;19930;-71
2023/10/19 01:03:52;;;;;;;;;;;;;;;-144.99;91.91;52435.88;5088233;28;20011;-65
2023/10/19 01:06:20;;;;;;;;;;;;;;;-144.99;92.03;52427.72;5088715;28;19946;-67
2023/10/19 01:08:46;;;;;;;;;;;;;;;-144.99;91.74;52439.94;5079410;28;20011;-69
2023/10/19 01:11:15;;;;;;;;;;;;;;;-144.99;91.82;52419.56;5086330;28;20019;-67
2023/10/19 01:13:44;;;;;;;;;;;;;;;-144.99;92.15;52444.03;5077622;28;19925;-68
2023/10/19 01:16:20;;;;;;;;;;;;;;;-144.99;92.18;52464.41;5086973;28;19931;-68
2023/10/19 01:18:47;;;;;;;;;;;;;;;-144.99;91.65;52429.75;5078078;28;19932;-68
2023/10/19 01:21:18;;;;;;;;;;;;;;;-144.99;91.96;52444.03;5089134;28;19931;-68
2023/10/19 01:23:47;;;;;;;;;;;;;;;-144.99;92.00;52448.09;5088594;28;20171;-66
2023/10/19 01:26:18;;;;;;;;;;;;;;;-144.99;91.75;52427.72;5085448;28;20008;-68
2023/10/19 01:28:47;;;;;;;;;;;;;;;-144.99;91.65;52476.63;5090196;28;19935;-66
2023/10/19 01:31:22;;;;;;;;;;;;;;;-144.99;91.46;52468.47;5083609;28;19962;-67
2023/10/19 01:33:49;;;;;;;;;;;;;;;-144.99;91.86;52470.50;5085157;28;20032;-67
2023/10/19 01:36:24;;;;;;;;;;;;;;;-144.99;91.85;52439.94;5080718;28;20003;-66
2023/10/19 01:38:53;;;;;;;;;;;;;;;-144.99;91.60;52431.78;5080527;28;19979;-68
2023/10/19 01:41:19;;;;;;;;;;;;;;;-144.99;91.86;52439.94;5089474;28;19935;-68
2023/10/19 01:43:46;;;;;;;;;;;;;;;-144.99;91.68;52452.16;5079918;28;19928;-68
2023/10/19 01:46:12;;;;;;;;;;;;;;;-144.99;91.86;52403.25;5086680;28;20062;-66
2023/10/19 01:48:40;;;;;;;;;;;;;;;-144.99;91.74;52486.81;5089185;28;19931;-66
2023/10/19 01:51:07;;;;;;;;;;;;;;;-144.99;92.06;52480.72;5083547;28;19924;-67
2023/10/19 01:53:34;;;;;;;;;;;;;;;-144.99;92.07;52439.94;5083083;28;19931;-67
2023/10/19 01:56:05;;;;;;;;;;;;;;;-144.99;91.99;52448.09;5084473;28;20003;-69
2023/10/19 01:58:36;;;;;;;;;;;;;;;-144.99;91.87;52427.72;5084333;28;19924;-69
2023/10/19 02:01:06;;;;;;;;;;;;;;;-144.99;91.86;52444.03;5080985;28;19973;-70
2023/10/19 02:03:32;;;;;;;;;;;;;;;-144.99;91.93;52423.63;5089524;28;19987;-69
2023/10/19 02:05:58;;;;;;;;;;;;;;;-144.99;92.11;52488.84;5084363;28;20377;-73
2023/10/19 02:08:26;;;;;;;;;;;;;;;-144.99;91.88;52472.56;5086460;28;20182;-73
2023/10/19 02:10:52;;;;;;;;;;;;;;;-144.99;91.60;52448.09;5089139;28;19931;-72
2023/10/19 02:13:20;;;;;;;;;;;;;;;-144.99;91.18;52407.31;5086881;28;19928;-72
2023/10/19 02:15:45;;;;;;;;;;;;;;;-144.99;91.33;52433.81;5088388;28;20011;-72
2023/10/19 02:18:12;;;;;;;;;;;;;;;-144.99;91.33;52435.88;5092307;28;20440;-72
2023/10/19 02:20:40;;;;;;;;;;;;;;;-144.99;91.26;52435.88;5094088;28;20019;-72
2023/10/19 02:23:07;;;;;;;;;;;;;;;-144.99;91.14;52435.88;5095329;28;19924;-72
2023/10/19 02:25:36;;;;;;;;;;;;;;;-144.99;91.26;52462.34;5088932;28;19978;-71
2023/10/19 02:28:03;;;;;;;;;;;;;;;-144.99;90.80;52452.16;5087947;28;20005;-67
2023/10/19 02:30:30;;;;;;;;;;;;;;;-144.99;90.98;52452.16;5088956;28;20018;-69
2023/10/19 02:32:57;;;;;;;;;;;;;;;-144.99;90.79;52439.94;5088491;28;19958;-69
2023/10/19 02:35:23;;;;;;;;;;;;;;;-144.99;90.63;52431.78;5085120;28;20002;-68
2023/10/19 02:37:49;;;;;;;;;;;;;;;-144.99;90.56;52480.72;5079062;28;20341;-67
2023/10/19 02:40:19;;;;;;;;;;;;;;;-144.99;90.47;52431.78;5085587;28;19932;-67
2023/10/19 02:42:47;;;;;;;;;;;;;;;-144.99;90.67;52456.25;5079435;28;19928;-76
2023/10/19 02:45:15;;;;;;;;;;;;;;;-144.99;90.23;52470.50;5082769;28;20452;-65
2023/10/19 02:47:43;;;;;;;;;;;;;;;-144.99;90.57;52448.09;5077272;28;19958;-65
2023/10/19 02:50:22;;;;;;;;;;;;;;;-144.99;90.52;52419.56;5096896;28;19938;-64
2023/10/19 02:52:49;;;;;;;;;;;;;;;-144.99;90.68;52444.03;5085613;28;19924;-67
2023/10/19 02:55:16;;;;;;;;;;;;;;;-144.99;90.52;52446.06;5075872;28;20027;-67
2023/10/19 02:57:46;;;;;;;;;;;;;;;-144.99;90.25;52439.94;5089996;28;19928;-67
2023/10/19 03:00:14;;;;;;;;;;;;;;;-144.99;90.65;52427.72;5083877;28;19923;-68
2023/10/19 03:02:40;;;;;;;;;;;;;;;-144.99;90.39;52450.13;5087691;28;20027;-67
2023/10/19 03:05:13;;;;;;;;;;;;;;;-144.99;90.28;52452.16;5083534;28;20019;-74
2023/10/19 03:07:43;;;;;;;;;;;;;;;-144.99;90.44;52464.41;5091028;28;19924;-71
2023/10/19 03:10:22;;;;;;;;;;;;;;;-144.99;90.33;52460.31;5092787;28;19930;-72
2023/10/19 03:12:49;;;;;;;;;;;;;;;-144.99;90.16;52423.63;5101029;28;19975;-73
2023/10/19 03:15:15;;;;;;;;;;;;;;;-144.99;90.22;52452.16;5091632;28;19935;-72
2023/10/19 03:17:42;;;;;;;;;;;;;;;-144.99;90.63;52448.09;5091923;28;19928;-72
2023/10/19 03:20:10;;;;;;;;;;;;;;;-144.99;90.86;52460.31;5092038;28;19928;-71
2023/10/19 03:22:38;;;;;;;;;;;;;;;-144.99;91.23;52444.03;5083884;28;20373;-71
2023/10/19 03:25:44;;;;;;;;;;;;;;;-144.99;92.10;52441.97;5082338;28;20015;-71
2023/10/19 03:27:58;;;;;;;;;;;;;;;-144.99;92.93;52470.50;5093126;28;20011;-79
2023/10/19 03:30:25;;;;;;;;;;;;;;;-144.99;93.58;52456.25;5101718;28;20369;-77
2023/10/19 03:32:52;;;;;;;;;;;;;;;-144.99;93.86;52464.41;5095856;28;20361;-77
2023/10/19 03:35:21;;;;;;;;;;;;;;;-144.99;93.58;52409.38;5090426;28;19929;-76
2023/10/19 03:37:51;;;;;;;;;;;;;;;-144.99;93.37;52446.06;5090400;28;19978;-77
2023/10/19 03:40:26;;;;;;;;;;;;;;;-144.99;93.72;52464.41;5090283;28;19936;-77
2023/10/19 03:42:54;;;;;;;;;;;;;;;-144.99;94.08;52468.47;5094026;28;19985;-76
2023/10/19 03:45:23;;;;;;;;;;;;;;;-144.99;94.42;52464.41;5108717;28;20943;-74
2023/10/19 03:47:53;;;;;;;;;;;;;;;-144.99;95.09;52448.09;5092449;28;19928;-73
2023/10/19 03:50:21;;;;;;;;;;;;;;;-144.99;95.47;52423.63;5089854;28;19928;-73
2023/10/19 03:52:47;;;;;;;;;;;;;;;-144.99;95.79;52476.63;5083202;28;20282;-70
2023/10/19 03:55:18;;;;;;;;;;;;;;;-144.99;96.07;52433.81;5075332;28;19975;-73
2023/10/19 03:57:50;;;;;;;;;;;;;;;-144.99;96.54;52439.94;5085534;28;19928;-71
2023/10/19 04:00:18;;;;;;;;;;;;;;;-144.99;96.93;52429.75;5083509;28;19932;-70
2023/10/19 04:02:46;;;;;;;;;;;;;;;-144.99;97.17;52468.47;5087977;28;20388;-70
2023/10/19 04:05:20;;;;;;;;;;;;;;;-144.99;97.76;52472.56;5090312;28;19924;-66
2023/10/19 04:07:50;;;;;;;;;;;;;;;-144.99;98.46;52460.31;5084027;28;19958;-68
2023/10/19 04:10:29;;;;;;;;;;;;;;;-144.99;98.93;52444.03;5090279;28;19924;-69
2023/10/19 04:12:56;;;;;;;;;;;;;;;-144.99;99.50;52460.31;5071547;28;20273;-68
2023/10/19 04:15:26;;;;;;;;;;;;;;;-144.99;100.00;52460.31;5091420;28;19993;-67
2023/10/19 04:17:54;;;;;;;;;;;;;;;-144.99;100.00;52427.72;5080616;28;19924;-69
2023/10/19 04:20:29;;;;;;;;;;;;;;;-144.99;100.00;52462.34;5077067;28;19928;-68
2023/10/19 04:23:05;;;;;;;;;;;;;;;-144.99;100.00;52427.72;5081673;28;20154;-70
2023/10/19 04:25:32;;;;;;;;;;;;;;;-144.99;100.00;52468.47;5084947;28;20380;-70
2023/10/19 04:28:00;;;;;;;;;;;;;;;-144.99;100.00;52415.47;5092022;28;20011;-69
2023/10/19 04:30:26;;;;;;;;;;;;;;;-144.99;100.00;52427.72;5088736;28;19949;-68
2023/10/19 04:32:55;;;;;;;;;;;;;;;-144.99;100.00;52466.44;5091341;28;19964;-67
2023/10/19 04:35:22;;;;;;;;;;;;;;;-144.99;100.00;52423.63;5088595;28;19978;-67
2023/10/19 04:37:50;;;;;;;;;;;;;;;-144.99;100.00;52415.47;5081569;28;19928;-68
2023/10/19 04:40:18;;;;;;;;;;;;;;;-144.99;100.00;52407.31;5088041;28;19928;-75
2023/10/19 04:42:45;;;;;;;;;;;;;;;-144.99;100.00;52427.72;5090692;28;19928;-72
2023/10/19 04:45:12;;;;;;;;;;;;;;;-144.99;100.00;52427.72;5088963;28;20010;-72
2023/10/19 04:47:39;;;;;;;;;;;;;;;-144.99;100.00;52448.09;5091624;28;19936;-74
2023/10/19 04:50:06;;;;;;;;;;;;;;;-144.99;100.00;52431.78;5085470;28;20423;-73
2023/10/19 04:52:33;;;;;;;;;;;;;;;-144.99;100.00;52427.72;5085514;28;19925;-71
2023/10/19 04:55:01;;;;;;;;;;;;;;;-144.99;100.00;52423.63;5088390;28;20060;-72
2023/10/19 04:57:29;;;;;;;;;;;;;;;-144.99;100.00;52464.41;5096461;28;19934;-73
2023/10/19 04:59:55;;;;;;;;;;;;;;;-144.99;100.00;52423.63;5086205;28;19935;-74
2023/10/19 05:02:22;;;;;;;;;;;;;;;-144.99;100.00;52456.25;5090931;28;19981;-75
2023/10/19 05:04:48;;;;;;;;;;;;;;;-144.99;100.00;52423.63;5086650;28;19964;-73
2023/10/19 05:07:16;;;;;;;;;;;;;;;-144.99;100.00;52423.63;5087785;28;20032;-72
2023/10/19 05:09:43;;;;;;;;;;;;;;;-144.99;100.00;52464.41;5085595;28;19932;-73
2023/10/19 05:12:11;;;;;;;;;;;;;;;-144.99;100.00;52435.88;5086223;28;20457;-72
2023/10/19 05:14:41;;;;;;;;;;;;;;;-144.99;100.00;52458.28;5090046;28;20304;-74
2023/10/19 05:17:08;;;;;;;;;;;;;;;-144.99;100.00;52439.94;5090385;28;19940;-72
2023/10/19 05:19:35;;;;;;;;;;;;;;;-144.99;100.00;52472.56;5087937;28;20371;-73
2023/10/19 05:22:03;;;;;;;;;;;;;;;-144.99;100.00;52441.97;5087539;28;20396;-73
2023/10/19 05:24:29;;;;;;;;;;;;;;;-144.99;100.00;52415.47;5079988;28;19928;-73
2023/10/19 05:26:56;;;;;;;;;;;;;;;-144.99;100.00;52419.56;5090288;28;19999;-73
2023/10/19 05:29:23;;;;;;;;;;;;;;;-144.99;100.00;52437.91;5097900;28;19963;-74
2023/10/19 05:31:53;;;;;;;;;;;;;;;-144.99;100.00;52439.94;5090298;28;19928;-74
2023/10/19 05:34:19;;;;;;;;;;;;;;;-144.99;100.00;52456.25;5079566;28;19960;-77
2023/10/19 05:36:48;;;;;;;;;;;;;;;-144.99;100.00;52439.94;5083220;28;20468;-73
2023/10/19 05:39:15;;;;;;;;;;;;;;;-144.99;100.00;52395.09;5092530;28;20329;-73
2023/10/19 05:41:42;;;;;;;;;;;;;;;-144.99;100.00;52456.25;5085848;28;19972;-75
2023/10/19 05:44:09;;;;;;;;;;;;;;;-144.99;100.00;52423.63;5090483;28;20262;-74
2023/10/19 05:46:35;;;;;;;;;;;;;;;-144.99;100.00;52423.63;5097281;28;20005;-74
2023/10/19 05:49:06;;;;;;;;;;;;;;;-144.99;100.00;52446.06;5094679;28;20274;-74
2023/10/19 05:51:32;;;;;;;;;;;;;;;-144.99;100.00;52407.31;5090995;28;19931;-74
2023/10/19 05:54:02;;;;;;;;;;;;;;;-144.99;100.00;52427.72;5088370;28;19928;-73
2023/10/19 05:56:30;;;;;;;;;;;;;;;-144.99;100.00;52450.13;5097111;28;19931;-73
2023/10/19 05:58:56;;;;;;;;;;;;;;;-144.99;100.00;52437.91;5099985;28;20281;-73
2023/10/19 06:01:24;;;;;;;;;;;;;;;-144.99;100.00;52448.09;5097140;28;20181;-74
2023/10/19 06:03:51;;;;;;;;;;;;;;;-144.99;100.00;52439.94;5092502;28;19928;-73
2023/10/19 06:06:20;;;;;;;;;;;;;;;-144.99;100.00;52413.44;5086269;28;20350;-73
2023/10/19 06:08:46;;;;;;;;;;;;;;;-144.99;100.00;52448.09;5086036;28;20375;-74
2023/10/19 06:11:13;;;;;;;;;;;;;;;-144.99;100.00;52456.25;5089192;28;19946;-74
2023/10/19 06:13:39;;;;;;;;;;;;;;;-144.99;100.00;52452.16;5089131;28;20089;-75
2023/10/19 06:16:06;;;;;;;;;;;;;;;-144.99;100.00;52456.25;5084419;28;19978;-74
2023/10/19 06:18:32;;;;;;;;;;;;;;;-144.99;100.00;52439.94;5083620;28;20254;-75
2023/10/19 06:20:59;;;;;;;;;;;;;;;-144.99;100.00;52413.44;5084347;28;19960;-75
2023/10/19 06:23:27;;;;;;;;;;;;;;;-144.99;100.00;52441.97;5085118;28;19932;-75
2023/10/19 06:25:53;;;;;;;;;;;;;;;-144.99;100.00;52456.25;5082808;28;19993;-74
2023/10/19 06:28:20;;;;;;;;;;;;;;;-144.99;100.00;52378.78;5092235;28;20017;-74
2023/10/19 06:30:48;;;;;;;;;;;;;;;-144.99;100.00;52435.88;5088955;28;20334;-75
2023/10/19 06:33:14;;;;;;;;;;;;;;;-144.99;100.00;52448.09;5087928;28;19928;-76
2023/10/19 06:35:41;;;;;;;;;;;;;;;-144.99;100.00;52415.47;5097270;28;19969;-75
2023/10/19 06:38:09;;;;;;;;;;;;;;;-144.99;100.00;52431.78;5100569;28;19950;-75
2023/10/19 06:40:37;;;;;;;;;;;;;;;-144.99;100.00;52452.16;5090296;28;19971;-76
2023/10/19 06:43:05;;;;;;;;;;;;;;;-144.99;100.00;52448.09;5085895;28;19963;-76
2023/10/19 06:45:31;;;;;;;;;;;;;;;-144.99;100.00;52444.03;5093474;28;19924;-75
2023/10/19 06:47:59;;;;;;;;;;;;;;;-144.99;100.00;52423.63;5091068;28;19927;-75
2023/10/19 06:50:27;;;;;;;;;;;;;;;-144.99;100.00;52452.16;5094295;28;20215;-75
2023/10/19 06:52:54;;;;;;;;;;;;;;;-144.99;100.00;52460.31;5086146;28;19928;-76
2023/10/19 06:55:22;;;;;;;;;;;;;;;-144.99;100.00;52431.78;5084431;28;19924;-74
2023/10/19 06:57:52;;;;;;;;;;;;;;;-144.99;100.00;52427.72;5093819;28;19928;-74
2023/10/19 07:00:20;;;;;;;;;;;;;;;-144.99;100.00;52407.31;5083393;28;20015;-75
2023/10/19 07:02:47;;;;;;;;;;;;;;;-144.99;100.00;52437.91;5094208;28;20019;-77
2023/10/19 07:05:18;;;;;;;;;;;;;;;-144.99;100.00;52439.94;5090731;28;20311;-76
2023/10/19 07:07:45;;;;;;;;;;;;;;;-144.99;100.00;52460.31;5085922;28;19938;-75
2023/10/19 07:10:12;;;;;;;;;;;;;;;-144.99;100.00;52448.09;5092383;28;19993;-75
2023/10/19 07:12:39;;;;;;;;;;;;;;;-144.99;100.00;52415.47;5090746;28;20412;-74
2023/10/19 07:15:08;;;;;;;;;;;;;;;-144.99;100.00;52435.88;5092042;28;19924;-75
2023/10/19 07:17:37;;;;;;;;;;;;;;;-144.99;100.00;52433.81;5095063;28;20069;-75
2023/10/19 07:20:05;;;;;;;;;;;;;;;-144.99;100.00;52476.63;5090447;28;19924;-74
2023/10/19 07:22:32;;;;;;;;;;;;;;;-144.99;100.00;52450.13;5094307;28;19925;-75
2023/10/19 07:24:59;;;;;;;;;;;;;;;-144.99;100.00;52407.31;5092584;28;19981;-75
2023/10/19 07:27:28;;;;;;;;;;;;;;;-144.99;100.00;52399.19;5093395;28;20014;-74
2023/10/19 07:29:54;;;;;;;;;;;;;;;-144.99;100.00;52450.13;5107381;22;19959;-71
2023/10/19 07:32:22;;;;;;;;;;;;;;;-144.99;100.00;52419.56;5111977;28;19928;-72
2023/10/19 07:34:50;;;;;;;;;;;;;;;-144.99;100.00;52460.31;5104631;28;20380;-71
2023/10/19 07:37:16;;;;;;;;;;;;;;;-144.99;100.00;52448.09;5096373;28;19928;-72
2023/10/19 07:39:45;;;;;;;;;;;;;;;-144.99;100.00;52441.97;5102970;28;19963;-71
2023/10/19 07:42:12;;;;;;;;;;;;;;;-144.99;100.00;52413.44;5108819;28;19947;-71
2023/10/19 07:44:38;;;;;;;;;;;;;;;-144.99;100.00;52403.25;5120318;27;20018;-71
2023/10/19 07:47:07;;;;;;;;;;;;;;;-144.99;100.00;52435.88;5125829;27;19911;-71
2023/10/19 07:49:34;;;;;;;;;;;;;;;-144.99;100.00;52431.78;5132403;28;20051;-71
2023/10/19 07:52:01;;;;;;;;;;;;;;;-144.99;100.00;52431.78;5109886;27;19927;-72
2023/10/19 07:54:28;;;;;;;;;;;;;;;-144.99;100.00;52446.06;5112394;27;19924;-72
2023/10/19 07:56:55;;;;;;;;;;;;;;;-144.99;100.00;52419.56;5108297;28;19928;-72
2023/10/19 07:59:22;;;;;;;;;;;;;;;-144.99;100.00;52441.97;5106421;27;20023;-71
2023/10/19 08:01:48;;;;;;;;;;;;;;;-144.99;100.00;52439.94;5106047;27;19928;-72
2023/10/19 08:04:14;;;;;;;;;;;;;;;-144.99;100.00;52429.75;5103615;27;20035;-71
2023/10/19 08:06:42;;;;;;;;;;;;;;;-144.99;100.00;52444.03;5109529;27;19936;-71
2023/10/19 08:09:11;;;;;;;;;;;;;;;-144.99;100.00;52427.72;5116591;27;19930;-71
2023/10/19 08:11:38;;;;;;;;;;;;;;;-144.99;100.00;52431.78;5100469;27;19930;-70
2023/10/19 08:14:05;;;;;;;;;;;;;;;-144.99;100.00;52419.56;5118764;27;20375;-71
2023/10/19 08:16:31;;;;;;;;;;;;;;;-144.99;100.00;52423.63;5104439;27;19945;-71
2023/10/19 08:18:58;;;;;;;;;;;;;;;-144.99;100.00;52435.88;5103883;27;20440;-71
2023/10/19 08:21:28;;;;;;;;;;;;;;;-144.99;100.00;52415.47;5105468;27;19924;-71
2023/10/19 08:23:56;;;;;;;;;;;;;;;-144.99;100.00;52427.72;5115048;27;19924;-70
2023/10/19 08:26:23;;;;;;;;;;;;;;;-144.99;100.00;52484.78;5109885;27;19955;-70
2023/10/19 08:28:50;;;;;;;;;;;;;;;-144.99;100.00;52448.09;5116717;27;20382;-70
2023/10/19 08:31:16;;;;;;;;;;;;;;;-144.99;100.00;52425.66;5109283;28;20404;-70
2023/10/19 08:33:43;;;;;;;;;;;;;;;-144.99;100.00;52407.31;5106733;28;20376;-70
2023/10/19 08:36:17;;;;;;;;;;;;;;;-144.99;100.00;52409.38;5106430;27;20403;-70
2023/10/19 08:38:44;;;;;;;;;;;;;;;-144.99;100.00;52456.25;5106205;27;19923;-70
2023/10/19 08:41:12;;;;;;;;;;;;;;;-144.99;100.00;52421.59;5112111;27;19924;-71
2023/10/19 08:43:39;;;;;;;;;;;;;;;-144.99;100.00;52456.25;5105618;27;19924;-71
2023/10/19 08:46:07;;;;;;;;;;;;;;;-144.99;100.00;52484.78;5112915;27;19924;-71
2023/10/19 08:48:34;;;;;;;;;;;;;;;-144.99;100.00;52419.56;5099076;28;19924;-70
2023/10/19 08:51:02;;;;;;;;;;;;;;;-144.99;100.00;52429.75;5104312;28;19924;-70
2023/10/19 08:53:28;;;;;;;;;;;;;;;-144.99;100.00;52444.03;5112026;28;20383;-70
2023/10/19 08:55:55;;;;;;;;;;;;;;;-144.99;100.00;52435.88;5112487;27;19965;-69
2023/10/19 08:58:24;;;;;;;;;;;;;;;-144.99;100.00;52460.31;5102947;27;19923;-70
2023/10/19 09:00:53;;;;;;;;;;;;;;;-144.99;100.00;52441.97;5109254;28;20015;-70
2023/10/19 09:03:21;;;;;;;;;;;;;;;-144.99;100.00;52454.22;5096990;27;19928;-70
2023/10/19 09:05:48;;;;;;;;;;;;;;;-144.99;100.00;52419.56;5103704;27;19931;-70
2023/10/19 09:08:16;;;;;;;;;;;;;;;-144.99;100.00;52407.31;5110814;28;19972;-70
2023/10/19 09:10:45;;;;;;;;;;;;;;;-144.99;100.00;52439.94;5119683;28;19923;-70
2023/10/19 09:13:12;;;;;;;;;;;;;;;-144.99;100.00;52419.56;5109333;27;19931;-70
2023/10/19 09:15:41;;;;;;;;;;;;;;;-144.99;100.00;52460.31;5111990;27;19923;-69
2023/10/19 09:18:15;;;;;;;;;;;;;;;-144.99;100.00;52448.09;5110184;28;19936;-70
2023/10/19 09:20:47;;;;;;;;;;;;;;;-144.99;100.00;52435.88;5102130;27;19955;-69
2023/10/19 09:23:14;;;;;;;;;;;;;;;-144.99;100.00;52476.63;5114080;27;19970;-69
2023/10/19 09:25:41;;;;;;;;;;;;;;;-144.99;100.00;52439.94;5108657;28;20473;-70
2023/10/19 09:28:10;;;;;;;;;;;;;;;-144.99;100.00;52435.88;5125081;27;19923;-70
2023/10/19 09:30:38;;;;;;;;;;;;;;;-144.99;100.00;52464.41;5123704;27;20011;-69
2023/10/19 09:33:09;;;;;;;;;;;;;;;-144.99;100.00;52468.47;5121358;27;19931;-69
2023/10/19 09:35:37;;;;;;;;;;;;;;;-144.99;100.00;52427.72;5114022;28;19928;-70
2023/10/19 09:38:06;;;;;;;;;;;;;;;-144.99;100.00;52460.31;5101864;28;20392;-70
2023/10/19 09:40:33;;;;;;;;;;;;;;;-144.99;100.00;52378.78;5116992;27;19950;-72
2023/10/19 09:43:02;;;;;;;;;;;;;;;-144.99;100.00;52419.56;5101672;27;20282;-72
2023/10/19 09:45:31;;;;;;;;;;;;;;;-144.99;100.00;52431.78;5104503;28;19923;-72
2023/10/19 09:47:58;;;;;;;;;;;;;;;-144.99;100.00;52423.63;5105223;28;20438;-74
2023/10/19 09:50:26;;;;;;;;;;;;;;;-144.99;100.00;52472.56;5103242;28;19932;-72
2023/10/19 09:52:54;;;;;;;;;;;;;;;-144.99;100.00;52399.19;5107736;27;19966;-72
2023/10/19 09:55:25;;;;;;;;;;;;;;;-144.99;100.00;52395.09;5102971;28;20350;-71
2023/10/19 09:57:54;;;;;;;;;;;;;;;-144.99;100.00;52431.78;5111686;28;19934;-72
2023/10/19 10:00:24;;;;;;;;;;;;;;;-144.99;100.00;52405.28;5108147;28;20374;-71
2023/10/19 10:02:51;;;;;;;;;;;;;;;-144.99;100.00;52407.31;5101035;28;19958;-72
2023/10/19 10:05:36;;;;;;;;;;;;;;;-144.99;100.00;52460.31;5106243;28;20335;-71
2023/10/19 10:08:21;;;;;;;;;;;;;;;-144.99;100.00;52448.09;5107533;28;19924;-73
2023/10/19 10:10:49;;;;;;;;;;;;;;;-144.99;100.00;52399.19;5106257;28;19932;-71
2023/10/19 10:13:31;;;;;;;;;;;;;;;-144.99;100.00;52384.91;5102471;28;19928;-70
2023/10/19 10:15:58;;;;;;;;;;;;;;;-144.99;100.00;52415.47;5110850;27;20425;-71
2023/10/19 10:18:25;;;;;;;;;;;;;;;-144.99;100.00;52374.72;5116903;27;19930;-70
2023/10/19 10:21:05;;;;;;;;;;;;;;;-144.99;100.00;52427.72;5109782;27;20385;-70
2023/10/19 10:23:34;;;;;;;;;;;;;;;-144.99;100.00;52448.09;5110693;27;20345;-71
2023/10/19 10:26:04;;;;;;;;;;;;;;;-144.99;100.00;52466.44;5118843;27;19957;-71
2023/10/19 10:28:30;;;;;;;;;;;;;;;-144.99;100.00;52427.72;5121328;27;19924;-71
2023/10/19 10:31:10;;;;;;;;;;;;;;;-144.99;100.00;52444.03;5126212;28;19924;-70
2023/10/19 10:33:39;;;;;;;;;;;;;;;-144.99;100.00;52423.63;5128222;28;19912;-71
2023/10/19 10:36:07;;;;;;;;;;;;;;;-144.99;100.00;52407.31;5129702;27;19947;-72
2023/10/19 10:38:35;;;;;;;;;;;;;;;-144.99;100.00;52431.78;5127918;28;19912;-70
2023/10/19 10:41:03;;;;;;;;;;;;;;;-144.99;100.00;52417.53;5142644;27;19965;-70
2023/10/19 10:43:29;;;;;;;;;;;;;;;-144.99;100.00;52378.78;5133969;27;19924;-70
2023/10/19 10:46:03;;;;;;;;;;;;;;;-144.99;100.00;52395.09;5127276;27;19959;-71
2023/10/19 10:48:30;;;;;;;;;;;;;;;-144.99;100.00;52452.16;5140229;27;19939;-71
2023/10/19 10:50:56;;;;;;;;;;;;;;;-144.99;100.00;52456.25;5136798;27;19924;-71
2023/10/19 10:53:26;;;;;;;;;;;;;;;-144.99;100.00;52407.31;5136902;27;19927;-73
2023/10/19 10:55:53;;;;;;;;;;;;;;;-144.99;100.00;52435.88;5106772;27;19931;-74
2023/10/19 10:58:21;;;;;;;;;;;;;;;-144.99;100.00;52423.63;5111124;27;19928;-71
2023/10/19 11:00:50;;;;;;;;;;;;;;;-144.99;100.00;52439.94;5106046;28;19930;-72
2023/10/19 11:03:17;;;;;;;;;;;;;;;-144.99;100.00;52403.25;5109496;28;19950;-72
2023/10/19 11:05:45;;;;;;;;;;;;;;;-144.99;100.00;52456.25;5110425;28;20168;-73
2023/10/19 11:08:14;;;;;;;;;;;;;;;-144.99;100.00;52419.56;5111458;27;20100;-72
2023/10/19 11:10:42;;;;;;;;;;;;;;;-144.99;100.00;52456.25;5110473;28;20008;-72
2023/10/19 11:13:09;;;;;;;;;;;;;;;-144.99;100.00;52417.53;5122219;28;19924;-73
2023/10/19 11:15:38;;;;;;;;;;;;;;;-144.99;100.00;52386.94;5117156;27;19973;-71
2023/10/19 11:18:04;;;;;;;;;;;;;;;-144.99;100.00;52391.03;5108447;28;20431;-71
2023/10/19 11:20:31;;;;;;;;;;;;;;;-144.99;100.00;52403.25;5113127;28;19924;-71
2023/10/19 11:23:00;;;;;;;;;;;;;;;-144.99;100.00;52423.63;5100717;28;19966;-72
2023/10/19 11:25:28;;;;;;;;;;;;;;;-144.99;100.00;52427.72;5104459;27;20002;-73
2023/10/19 11:27:55;;;;;;;;;;;;;;;-144.99;100.00;52407.31;5103385;28;19935;-72
2023/10/19 11:30:25;;;;;;;;;;;;;;;-144.99;100.00;52417.53;5095027;28;20420;-72
2023/10/19 11:32:56;;;;;;;;;;;;;;;-144.99;100.00;52419.56;5105571;28;19931;-72
2023/10/19 11:35:23;;;;;;;;;;;;;;;-144.99;100.00;52393.06;5107565;28;19943;-72
2023/10/19 11:37:52;;;;;;;;;;;;;;;-144.99;100.00;52415.47;5102526;27;19936;-72
2023/10/19 11:40:19;;;;;;;;;;;;;;;-144.99;100.00;52431.78;5094045;28;19928;-72
2023/10/19 11:42:45;;;;;;;;;;;;;;;-144.99;100.00;52427.72;5106213;28;19962;-72
2023/10/19 11:45:12;;;;;;;;;;;;;;;-144.99;100.00;52444.03;5113409;28;19938;-72
2023/10/19 11:47:39;;;;;;;;;;;;;;;-144.99;100.00;52446.06;5112418;27;19967;-72
2023/10/19 11:50:07;;;;;;;;;;;;;;;-144.99;100.00;52415.47;5111526;28;19969;-72
2023/10/19 11:52:34;;;;;;;;;;;;;;;-144.99;100.00;52439.94;5120535;28;20402;-72
2023/10/19 11:55:00;;;;;;;;;;;;;;;-144.99;100.00;52431.78;5098372;28;20667;-73
2023/10/19 11:57:27;;;;;;;;;;;;;;;-144.99;100.00;52448.09;5112504;28;19989;-72
2023/10/19 11:59:53;;;;;;;;;;;;;;;-144.99;100.00;52397.13;5111370;27;19928;-73
2023/10/19 12:02:20;;;;;;;;;;;;;;;-144.99;100.00;52411.41;5100407;28;19928;-73
2023/10/19 12:04:47;;;;;;;;;;;;;;;-144.99;100.00;52421.59;5111966;28;19924;-73
2023/10/19 12:07:15;;;;;;;;;;;;;;;-144.99;100.00;52415.47;5111460;28;19930;-73
2023/10/19 12:09:41;;;;;;;;;;;;;;;-144.99;100.00;52429.75;5105903;27;19962;-73
2023/10/19 12:12:08;;;;;;;;;;;;;;;-144.99;100.00;52411.41;5111133;28;19946;-73
2023/10/19 12:14:35;;;;;;;;;;;;;;;-144.99;100.00;52448.09;5103107;28;19931;-72
2023/10/19 12:17:02;;;;;;;;;;;;;;;-144.99;100.00;52419.56;5098949;28;19978;-72
2023/10/19 12:19:30;;;;;;;;;;;;;;;-144.99;100.00;52403.25;5108489;27;19928;-73
2023/10/19 12:21:57;;;;;;;;;;;;;;;-144.99;100.00;52431.78;5103140;28;20342;-72
2023/10/19 12:24:28;;;;;;;;;;;;;;;-144.99;100.00;52435.88;5111116;28;19928;-72
2023/10/19 12:26:54;;;;;;;;;;;;;;;-144.99;100.00;52427.72;5097732;28;20014;-72